Terminal Aerodrome Forecast
Issued by NWS Tampa Bay Area, FL

Home | Current Version | Previous Version | Text Only | Print | Product List | Glossary On
Versions: 1 2 3 4 5 6 7 8 9 10 11 12 13 14 15 16 17 18 19 20 21 22 23 24 25 26
000
FTUS42 KTBW 220500
TAFTPA
TAF
KTPA 220530Z 2206/2306 00000KT P6SM FEW020 SCT080 BKN250
     FM221200 VRB03KT P6SM VCSH SCT025 BKN070 BKN250
     FM221500 19006KT P6SM VCSH SCT025 BKN070
     FM221800 23007KT P6SM VCTS SCT035CB BKN070
     FM230200 VRB06KT P6SM SCT050 BKN070=

USA.gov is the U.S. government's official web portal to all federal, state and local government web resources and services.